Houston, Texas
Traffic Map
Current Weather Conditions
Houston, Texas
Few Clouds
Few Clouds
91°
Feels Like: 100°
Wind Chill: 91° Ceiling: Unl
Heat Index: 100° Visibility: 8mi
Dew Point: 73° Wind: 5mph
Humidity: 55% Direction: 150° (SSE)
Pressure: 30.06in Gusts: 18mph
Raw Report DataKMCJ 211555Z AUTO 15004G16KT 020V020 8SM FEW027 33/23 A3006 RMK AO1
Traffic Incident Summary
Active as of:
Severity:
Category:
InformationThere was an issue retrieving the traffic information for this location. Please try a different location or try again shortly.
Advertisements
Track Severe Weather on mobile